Time;durP1;ratioP1;P1;durP2;ratioP2;P2;SDS_P1;SDS_P2;PMS_P1;PMS_P2;Temp;Humidity;BMP_temperature;BMP_pressure;BME280_temperature;BME280_humidity;BME280_pressure;Samples;Min_cycle;Max_cycle;Signal;HPM_P1;HPM_P2
2022/06/02 00:01:14;;;;;;;4.97;3.67;;;12.60;68.70;;;;;;5079637;28;20033;-70
2022/06/02 00:03:49;;;;;;;3.60;3.30;;;12.60;68.80;;;;;;5078339;28;20028;-69
2022/06/02 00:06:42;;;;;;;5.10;3.72;;;12.50;68.70;;;;;;5077555;28;20039;-70
2022/06/02 00:09:27;;;;;;;4.57;3.60;;;12.50;68.90;;;;;;5080924;28;20036;-69
2022/06/02 00:11:58;;;;;;;4.95;3.92;;;12.40;68.90;;;;;;5086193;28;20031;-69
2022/06/02 00:14:50;;;;;;;4.55;3.90;;;12.40;69.00;;;;;;5089853;28;20035;-69
2022/06/02 00:17:47;;;;;;;3.80;3.40;;;12.30;70.00;;;;;;5084024;28;20039;-69
2022/06/02 00:20:26;;;;;;;4.70;3.53;;;12.30;69.40;;;;;;5089027;28;20043;-69
2022/06/02 00:23:19;;;;;;;4.05;3.65;;;12.30;69.50;;;;;;5074120;28;20028;-69
2022/06/02 00:25:47;;;;;;;4.10;3.55;;;12.20;69.70;;;;;;5091842;28;20017;-69
2022/06/02 00:28:37;;;;;;;4.68;4.10;;;12.10;69.80;;;;;;5086152;28;20031;-68
2022/06/02 00:31:25;;;;;;;5.05;4.15;;;12.10;70.10;;;;;;5078034;28;20024;-70
2022/06/02 00:34:09;;;;;;;4.65;4.15;;;12.10;70.20;;;;;;5098310;28;20060;-70
2022/06/02 00:36:53;;;;;;;4.32;3.92;;;12.00;70.30;;;;;;5081815;28;20487;-69
2022/06/02 00:39:19;;;;;;;3.97;3.58;;;12.00;70.30;;;;;;5079436;28;20397;-69
2022/06/02 00:41:54;;;;;;;6.22;4.25;;;12.00;70.40;;;;;;5085510;28;20066;-69
2022/06/02 00:44:56;;;;;;;4.82;4.32;;;12.00;70.50;;;;;;5089981;28;20401;-71
2022/06/02 00:47:33;;;;;;;4.65;3.92;;;11.90;70.60;;;;;;5092022;28;20024;-70
2022/06/02 00:50:13;;;;;;;4.53;4.10;;;11.90;70.70;;;;;;5069373;28;20036;-68
2022/06/02 00:52:39;;;;;;;4.63;4.07;;;11.90;70.80;;;;;;5078734;28;20062;-68
2022/06/02 00:58:54;;;;;;;4.35;3.92;;;11.90;70.90;;;;;;5089371;28;20071;-69
2022/06/02 01:01:31;;;;;;;4.32;3.92;;;11.90;70.90;;;;;;5048663;28;20047;-70
2022/06/02 01:04:00;;;;;;;4.63;4.22;;;11.80;71.00;;;;;;5088505;28;20008;-70
2022/06/02 01:06:41;;;;;;;5.00;4.50;;;11.80;71.00;;;;;;5080544;28;20116;-69
2022/06/02 01:09:41;;;;;;;6.32;5.00;;;11.80;71.30;;;;;;5095268;28;20028;-70
2022/06/02 01:12:16;;;;;;;4.90;4.40;;;11.70;71.50;;;;;;5084159;28;20039;-69
2022/06/02 01:14:57;;;;;;;5.00;4.35;;;11.70;71.50;;;;;;5100972;28;20027;-69
2022/06/02 01:17:35;;;;;;;4.90;4.40;;;11.70;71.50;;;;;;5084667;28;20028;-69
2022/06/02 01:20:22;;;;;;;5.63;4.78;;;11.70;71.50;;;;;;5083358;28;20103;-68
2022/06/02 01:23:46;;;;;;;5.03;4.43;;;11.70;71.50;;;;;;5076210;28;20028;-69
2022/06/02 01:26:23;;;;;;;4.57;4.05;;;11.80;72.20;;;;;;5044171;28;20033;-69
2022/06/02 01:29:26;;;;;;;5.53;4.07;;;11.70;71.50;;;;;;5105066;28;20031;-69
2022/06/02 01:32:12;;;;;;;;;;;11.70;71.50;;;;;;5081664;28;20032;-70
2022/06/02 01:34:50;;;;;;;5.15;4.38;;;11.70;71.30;;;;;;5090833;28;20517;-70
2022/06/02 01:37:30;;;;;;;5.43;4.30;;;11.60;71.40;;;;;;5071806;28;20031;-70
2022/06/02 01:40:02;;;;;;;5.57;4.70;;;11.60;71.50;;;;;;5092704;28;20378;-70
2022/06/02 01:42:33;;;;;;;5.15;4.35;;;11.60;71.50;;;;;;5088278;28;20031;-70
2022/06/02 01:45:24;;;;;;;5.25;4.40;;;11.60;71.50;;;;;;5078727;28;20048;-70
2022/06/02 01:48:18;;;;;;;4.55;4.15;;;11.60;71.50;;;;;;5085957;28;20028;-70
2022/06/02 01:51:12;;;;;;;5.13;4.63;;;11.50;71.60;;;;;;5088458;28;20036;-70
2022/06/02 01:53:59;;;;;;;5.13;4.30;;;11.60;71.60;;;;;;5085635;28;20107;-70
2022/06/02 01:56:58;;;;;;;5.30;4.80;;;11.50;71.50;;;;;;5088174;28;20039;-70
2022/06/02 01:59:35;;;;;;;5.30;4.63;;;11.40;71.60;;;;;;5088072;28;20079;-69
2022/06/02 02:02:38;;;;;;;5.13;4.63;;;11.40;71.90;;;;;;5071831;28;20385;-69
2022/06/02 02:05:29;;;;;;;4.95;4.45;;;11.30;71.90;;;;;;5089852;28;20048;-70
2022/06/02 02:08:33;;;;;;;4.90;4.40;;;11.20;72.00;;;;;;5087609;28;20024;-69
2022/06/02 02:11:17;;;;;;;5.70;5.13;;;11.20;72.00;;;;;;5063389;28;20107;-69
2022/06/02 02:14:15;;;;;;;5.97;5.38;;;11.20;72.00;;;;;;5067563;28;20031;-69
2022/06/02 02:16:43;;;;;;;5.63;5.03;;;11.30;72.80;;;;;;5062908;28;20045;-68
2022/06/02 02:19:11;;;;;;;5.60;5.10;;;11.20;72.10;;;;;;5088358;28;20032;-68
2022/06/02 02:22:15;;;;;;;5.55;5.05;;;11.20;72.10;;;;;;5065059;28;20429;-68
2022/06/02 02:25:15;;;;;;;5.30;4.80;;;11.20;72.20;;;;;;5074189;28;20029;-68
2022/06/02 02:28:08;;;;;;;4.70;4.25;;;11.10;72.30;;;;;;5082844;28;20028;-70
2022/06/02 02:30:44;;;;;;;5.65;4.70;;;11.10;72.30;;;;;;5090772;28;20518;-71
2022/06/02 02:33:31;;;;;;;6.95;5.07;;;11.10;72.40;;;;;;5078687;28;20035;-72
2022/06/02 02:36:12;;;;;;;6.15;4.97;;;11.00;72.40;;;;;;5061749;28;20446;-72
2022/06/02 02:38:56;;;;;;;6.20;5.03;;;11.10;72.50;;;;;;5086121;28;20580;-72
2022/06/02 02:41:36;;;;;;;5.78;5.18;;;11.10;72.40;;;;;;5091903;28;20512;-72
2022/06/02 02:44:36;;;;;;;5.95;5.03;;;11.00;72.50;;;;;;5077444;28;20024;-71
2022/06/02 02:47:29;;;;;;;5.78;5.18;;;11.00;72.50;;;;;;5076403;28;20024;-71
2022/06/02 02:50:20;;;;;;;7.63;5.80;;;11.00;72.50;;;;;;5090878;28;20378;-71
2022/06/02 02:52:55;;;;;;;5.70;4.85;;;11.00;72.60;;;;;;5089544;28;20478;-70
2022/06/02 02:55:25;;;;;;;6.55;5.78;;;10.90;72.70;;;;;;5065852;28;20092;-70
2022/06/02 02:58:04;;;;;;;5.93;5.13;;;10.90;72.80;;;;;;5094948;28;20045;-69
2022/06/02 03:00:59;;;;;;;7.10;5.97;;;10.90;73.00;;;;;;5092068;28;20028;-70
2022/06/02 03:03:52;;;;;;;5.97;5.15;;;10.90;73.10;;;;;;5080602;28;20126;-69
2022/06/02 03:06:23;;;;;;;6.30;5.40;;;10.80;73.10;;;;;;5087525;28;20028;-69
2022/06/02 03:09:01;;;;;;;6.03;5.28;;;10.80;73.10;;;;;;5063009;28;20035;-70
2022/06/02 03:11:54;;;;;;;7.63;5.70;;;10.80;73.00;;;;;;5090806;28;20028;-70
2022/06/02 03:14:48;;;;;;;6.22;5.53;;;10.90;73.10;;;;;;5091363;28;20039;-70
2022/06/02 03:17:33;;;;;;;6.15;5.55;;;10.80;73.00;;;;;;5082767;28;20028;-69
2022/06/02 03:20:26;;;;;;;7.15;5.70;;;10.80;73.10;;;;;;5081220;28;20393;-70
2022/06/02 03:23:26;;;;;;;7.15;6.22;;;10.80;73.20;;;;;;5091997;28;20050;-69
2022/06/02 03:26:00;;;;;;;6.20;5.60;;;10.80;73.30;;;;;;5103325;28;20030;-70
2022/06/02 03:28:34;;;;;;;6.72;6.03;;;10.80;73.30;;;;;;5098902;28;20027;-70
2022/06/02 03:31:23;;;;;;;6.28;5.55;;;10.80;73.30;;;;;;5085181;28;20074;-69
2022/06/02 03:34:07;;;;;;;7.80;6.10;;;10.80;73.30;;;;;;5080844;28;20554;-69
2022/06/02 03:37:10;;;;;;;6.80;6.07;;;10.80;73.30;;;;;;5078823;28;20028;-69
2022/06/02 03:40:19;;;;;;;6.82;5.82;;;10.80;73.40;;;;;;5078811;28;20478;-70
2022/06/02 03:43:12;;;;;;;9.23;7.05;;;10.80;73.60;;;;;;5014264;28;20036;-69
2022/06/02 03:45:58;;;;;;;7.72;6.53;;;10.80;73.70;;;;;;5084267;28;20038;-69
2022/06/02 03:48:39;;;;;;;7.80;7.00;;;10.90;73.70;;;;;;5064798;28;20115;-69
2022/06/02 03:51:33;;;;;;;8.00;7.20;;;10.90;73.70;;;;;;5083209;28;20028;-69
2022/06/02 03:54:36;;;;;;;8.57;7.65;;;11.00;73.70;;;;;;5077371;28;20031;-69
2022/06/02 03:57:27;;;;;;;7.32;6.53;;;11.00;73.50;;;;;;5086150;28;20389;-69
2022/06/02 04:00:20;;;;;;;8.07;6.85;;;11.00;73.30;;;;;;5081964;28;20028;-69
2022/06/02 04:02:53;;;;;;;6.65;5.95;;;11.00;73.30;;;;;;5096824;28;20043;-70
2022/06/02 04:05:40;;;;;;;7.28;6.47;;;11.10;73.30;;;;;;5087042;28;20032;-69
2022/06/02 04:08:27;;;;;;;7.70;6.22;;;11.00;73.30;;;;;;5083712;28;20057;-68
2022/06/02 04:11:13;;;;;;;7.15;6.43;;;11.00;73.30;;;;;;5078564;28;20032;-68
2022/06/02 04:14:04;;;;;;;7.18;6.20;;;11.00;73.40;;;;;;5075624;28;20524;-68
2022/06/02 04:16:57;;;;;;;8.07;7.18;;;11.00;73.60;;;;;;5100493;28;20023;-68
2022/06/02 04:22:48;;;;;;;7.80;7.00;;;11.10;73.60;;;;;;5084595;28;20039;-69
2022/06/02 04:25:17;;;;;;;8.38;7.03;;;11.10;73.60;;;;;;5063753;28;20020;-69
2022/06/02 04:27:42;;;;;;;8.90;7.90;;;11.20;73.60;;;;;;5084439;28;20025;-69
2022/06/02 04:30:20;;;;;;;8.68;7.15;;;11.20;73.70;;;;;;5088387;28;20037;-69
2022/06/02 04:33:00;;;;;;;8.18;7.28;;;11.30;73.90;;;;;;5089630;28;20393;-69
2022/06/02 04:35:49;;;;;;;9.15;8.20;;;11.30;73.80;;;;;;5080542;28;20544;-69
2022/06/02 04:38:37;;;;;;;8.32;7.07;;;11.30;73.80;;;;;;5061189;28;20020;-69
2022/06/02 04:41:20;;;;;;;8.80;7.43;;;11.50;73.80;;;;;;5086862;28;20393;-69
2022/06/02 04:43:57;;;;;;;8.25;7.32;;;11.50;73.80;;;;;;5098495;28;20020;-69
2022/06/02 04:46:43;;;;;;;9.68;7.88;;;11.60;74.40;;;;;;5092007;28;20035;-69
2022/06/02 04:49:17;;;;;;;9.00;7.78;;;11.60;73.80;;;;;;5086889;28;20437;-69
2022/06/02 04:52:11;;;;;;;10.80;8.90;;;11.70;73.80;;;;;;5085478;28;20025;-69
2022/06/02 04:54:52;;;;;;;10.35;8.32;;;11.80;74.10;;;;;;5071495;28;20174;-69
2022/06/02 04:57:42;;;;;;;9.20;7.88;;;12.50;73.20;;;;;;5091989;28;20031;-70
2022/06/02 05:00:20;;;;;;;8.82;7.82;;;13.40;71.20;;;;;;5082605;28;20028;-70
2022/06/02 05:03:00;;;;;;;9.43;8.43;;;14.20;68.80;;;;;;5075762;28;20511;-70
2022/06/02 05:05:29;;;;;;;9.20;7.93;;;14.90;67.00;;;;;;5085428;28;20030;-69
2022/06/02 05:08:17;;;;;;;8.93;7.60;;;15.50;65.30;;;;;;5090996;28;20036;-70
2022/06/02 05:11:07;;;;;;;7.55;6.75;;;16.10;64.00;;;;;;5084914;28;20052;-69
2022/06/02 05:13:45;;;;;;;9.02;7.72;;;16.60;62.60;;;;;;5088922;28;20035;-69
2022/06/02 05:16:37;;;;;;;11.68;8.80;;;16.80;61.80;;;;;;5076858;28;20036;-69
2022/06/02 05:19:47;;;;;;;8.10;7.05;;;17.10;61.50;;;;;;5089108;28;20025;-69
2022/06/02 05:22:19;;;;;;;7.93;7.13;;;17.40;60.70;;;;;;5034728;28;20226;-69
2022/06/02 05:25:04;;;;;;;7.80;6.43;;;17.80;60.10;;;;;;5041216;28;20034;-70
2022/06/02 05:27:50;;;;;;;7.88;7.07;;;18.10;59.60;;;;;;5075482;28;20042;-68
2022/06/02 05:30:34;;;;;;;6.88;5.88;;;18.30;59.10;;;;;;5088430;28;20035;-68
2022/06/02 05:33:15;;;;;;;5.57;4.70;;;18.60;59.30;;;;;;5083603;28;20410;-69
2022/06/02 05:35:55;;;;;;;7.90;6.45;;;18.70;58.30;;;;;;5086371;28;20028;-68
2022/06/02 05:38:24;;;;;;;7.13;6.43;;;18.80;58.20;;;;;;5084270;28;20028;-68
2022/06/02 05:40:52;;;;;;;7.43;5.93;;;19.00;58.00;;;;;;5081598;28;20118;-69
2022/06/02 05:43:46;;;;;;;6.38;5.78;;;19.20;57.70;;;;;;5065729;28;20032;-68
2022/06/02 05:46:25;;;;;;;9.40;6.65;;;19.40;57.50;;;;;;5086266;28;20099;-67
2022/06/02 05:48:51;;;;;;;6.15;5.55;;;19.50;57.20;;;;;;5065946;28;20020;-67
2022/06/02 05:51:31;;;;;;;7.78;6.18;;;19.80;57.00;;;;;;5087783;28;20016;-70
2022/06/02 05:54:10;;;;;;;6.80;5.72;;;19.90;56.90;;;;;;5081876;28;20403;-67
2022/06/02 05:57:08;;;;;;;6.85;6.10;;;20.00;56.90;;;;;;5085668;28;20098;-69
2022/06/02 05:59:53;;;;;;;5.38;4.82;;;20.10;57.00;;;;;;5079881;28;20021;-68
2022/06/02 06:03:01;;;;;;;6.38;4.57;;;20.10;57.10;;;;;;5089558;28;20712;-68
2022/06/02 06:05:39;;;;;;;4.68;3.83;;;19.90;57.50;;;;;;5013736;28;20041;-68
2022/06/02 06:08:15;;;;;;;4.10;3.70;;;19.70;57.90;;;;;;5067926;28;20029;-68
2022/06/02 06:10:53;;;;;;;3.33;2.92;;;19.50;58.40;;;;;;5090535;28;20031;-68
2022/06/02 06:13:42;;;;;;;5.28;4.75;;;19.30;58.80;;;;;;5064569;28;20032;-67
2022/06/02 06:16:23;;;;;;;4.55;3.83;;;19.00;59.30;;;;;;5036594;28;20036;-68
2022/06/02 06:19:13;;;;;;;4.97;4.15;;;18.70;59.80;;;;;;5086864;28;20032;-68
2022/06/02 06:21:58;;;;;;;5.78;4.55;;;18.50;60.30;;;;;;5086038;28;20021;-68
2022/06/02 06:24:43;;;;;;;4.95;4.07;;;18.30;60.60;;;;;;5085504;28;20036;-68
2022/06/02 06:27:25;;;;;;;4.65;3.75;;;18.10;60.90;;;;;;5077953;28;20035;-67
2022/06/02 06:30:09;;;;;;;4.05;3.35;;;18.00;61.20;;;;;;5086409;28;20036;-68
2022/06/02 06:33:14;;;;;;;4.38;3.78;;;18.00;61.50;;;;;;5077297;28;20058;-68
2022/06/02 06:35:40;;;;;;;3.55;2.90;;;18.00;61.50;;;;;;5087073;28;20110;-68
2022/06/02 06:38:30;;;;;;;4.18;3.13;;;18.10;61.60;;;;;;5081660;28;20161;-68
2022/06/02 06:41:14;;;;;;;3.83;3.30;;;18.10;61.50;;;;;;5085255;28;20031;-68
2022/06/02 06:44:20;;;;;;;4.80;3.00;;;18.10;61.30;;;;;;5095058;28;20047;-68
2022/06/02 06:46:55;;;;;;;4.63;3.40;;;18.20;61.00;;;;;;5085369;28;20099;-68
2022/06/02 06:49:43;;;;;;;3.35;2.80;;;18.00;60.60;;;;;;5075071;28;20435;-69
2022/06/02 06:52:18;;;;;;;3.42;2.60;;;18.00;60.60;;;;;;5093203;28;20359;-68
2022/06/02 06:55:08;;;;;;;2.83;2.25;;;18.00;60.40;;;;;;5075862;28;20024;-68
2022/06/02 06:57:42;;;;;;;3.30;3.00;;;18.10;60.30;;;;;;5068862;28;20579;-68
2022/06/02 07:00:24;;;;;;;3.58;2.95;;;18.20;60.00;;;;;;5092742;28;20214;-68
2022/06/02 07:02:58;;;;;;;2.45;2.08;;;18.40;59.80;;;;;;5084193;28;20043;-68
2022/06/02 07:05:49;;;;;;;3.40;2.55;;;18.50;59.50;;;;;;5088954;28;20036;-69
2022/06/02 07:08:35;;;;;;;4.13;2.25;;;18.60;59.10;;;;;;5088629;28;20378;-68
2022/06/02 07:11:03;;;;;;;2.28;1.90;;;18.80;58.90;;;;;;5089520;28;20513;-69
2022/06/02 07:13:31;;;;;;;2.28;2.03;;;18.90;58.50;;;;;;5064656;28;20034;-69
2022/06/02 07:16:03;;;;;;;2.40;2.13;;;19.00;58.00;;;;;;5082103;28;20710;-68
2022/06/02 07:18:47;;;;;;;2.90;2.05;;;19.10;57.40;;;;;;5080294;28;20498;-68
2022/06/02 07:21:31;;;;;;;2.60;2.03;;;19.20;56.70;;;;;;5064797;28;20406;-68
2022/06/02 07:24:21;;;;;;;2.88;2.10;;;19.10;56.40;;;;;;5076851;28;20031;-68
2022/06/02 07:27:05;;;;;;;3.00;1.80;;;19.20;56.40;;;;;;5065004;28;20637;-68
2022/06/02 07:29:47;;;;;;;2.35;1.75;;;19.20;56.20;;;;;;5078084;28;20024;-68
2022/06/02 07:33:10;;;;;;;2.45;2.25;;;19.50;56.00;;;;;;5091277;28;20482;-68
2022/06/02 07:35:51;;;;;;;1.83;1.50;;;19.50;55.30;;;;;;4999463;28;20029;-68
2022/06/02 07:38:45;;;;;;;2.67;1.70;;;19.70;55.00;;;;;;5001220;28;20069;-68
2022/06/02 07:41:38;;;;;;;2.53;1.58;;;19.90;54.30;;;;;;5069887;28;20040;-68
2022/06/02 07:44:15;;;;;;;2.17;1.60;;;20.00;54.20;;;;;;5084019;28;20029;-69
2022/06/02 07:47:09;;;;;;;1.55;1.42;;;19.80;53.80;;;;;;5085132;28;20031;-68
2022/06/02 07:49:41;;;;;;;2.08;1.25;;;19.60;53.80;;;;;;5083733;28;20028;-68
2022/06/02 07:52:28;;;;;;;2.40;1.52;;;19.50;54.10;;;;;;5080107;28;20016;-69
2022/06/02 07:54:57;;;;;;;1.52;1.30;;;19.30;53.80;;;;;;5078789;28;20509;-69
2022/06/02 07:57:22;;;;;;;3.08;1.50;;;19.20;54.00;;;;;;5083053;28;20031;-68
2022/06/02 07:59:54;;;;;;;1.98;1.50;;;19.20;53.70;;;;;;5074072;28;20032;-67
2022/06/02 08:02:48;;;;;;;2.13;1.50;;;19.10;53.60;;;;;;5081356;28;20016;-68
2022/06/02 08:05:27;;;;;;;3.55;1.85;;;19.20;53.60;;;;;;5085009;28;20024;-68
2022/06/02 08:07:54;;;;;;;2.92;1.40;;;19.40;53.30;;;;;;5081259;28;20032;-68
2022/06/02 08:10:25;;;;;;;2.75;1.33;;;19.50;52.80;;;;;;5081382;28;20025;-69
2022/06/02 08:13:00;;;;;;;1.60;1.30;;;19.80;52.50;;;;;;5086302;28;20028;-68
2022/06/02 08:16:00;;;;;;;1.70;1.35;;;20.10;51.60;;;;;;5072373;28;20028;-68
2022/06/02 08:18:37;;;;;;;2.10;1.60;;;20.30;51.20;;;;;;5087150;28;20028;-67
2022/06/02 08:21:21;;;;;;;1.45;1.25;;;20.30;50.90;;;;;;5087803;28;20030;-68
2022/06/02 08:23:59;;;;;;;2.05;1.60;;;20.50;51.10;;;;;;5089539;28;20554;-68
2022/06/02 08:26:55;;;;;;;1.50;1.30;;;20.60;50.80;;;;;;5090113;28;20558;-68
2022/06/02 08:29:47;;;;;;;1.67;1.20;;;20.60;50.50;;;;;;5063739;28;20125;-68
2022/06/02 08:32:21;;;;;;;1.25;1.10;;;20.30;50.20;;;;;;5083355;28;20033;-68
2022/06/02 08:35:04;;;;;;;1.92;1.30;;;20.00;50.30;;;;;;5076446;28;20062;-68
2022/06/02 08:37:32;;;;;;;2.13;1.40;;;19.90;50.60;;;;;;5082183;28;20066;-68
2022/06/02 08:40:30;;;;;;;3.05;1.58;;;19.80;50.60;;;;;;5080331;28;20051;-68
2022/06/02 08:43:04;;;;;;;2.45;1.63;;;19.50;50.40;;;;;;5094733;28;20515;-68
2022/06/02 08:45:57;;;;;;;2.97;1.20;;;19.30;50.80;;;;;;5087714;28;20033;-68
2022/06/02 08:48:26;;;;;;;2.30;1.10;;;19.20;50.90;;;;;;5086795;28;20031;-68
2022/06/02 08:51:00;;;;;;;1.60;1.20;;;19.20;50.80;;;;;;5095056;28;20028;-68
2022/06/02 08:54:08;;;;;;;1.20;1.10;;;19.30;50.90;;;;;;5075212;28;20039;-68
2022/06/02 08:56:52;;;;;;;1.70;1.10;;;19.50;50.10;;;;;;5081213;28;20112;-68
2022/06/02 08:59:29;;;;;;;1.17;1.05;;;19.80;49.20;;;;;;5080317;28;20035;-68
2022/06/02 09:02:22;;;;;;;1.77;1.10;;;19.90;48.60;;;;;;5077090;28;20023;-68
2022/06/02 09:04:51;;;;;;;2.92;1.33;;;20.00;48.30;;;;;;5071843;28;20024;-68
2022/06/02 09:07:20;;;;;;;1.42;0.90;;;20.00;45.80;;;;;;5077349;28;20031;-68
2022/06/02 09:09:55;;;;;;;1.25;0.90;;;20.10;46.50;;;;;;5078014;28;20036;-68
2022/06/02 09:12:32;;;;;;;2.47;1.08;;;20.40;46.40;;;;;;5081697;28;20676;-68
2022/06/02 09:15:13;;;;;;;1.38;0.98;;;20.50;46.60;;;;;;5079681;28;20046;-68
2022/06/02 09:18:12;;;;;;;1.65;1.10;;;20.50;46.70;;;;;;5084655;28;20035;-68
2022/06/02 09:20:47;;;;;;;2.35;1.23;;;20.50;46.80;;;;;;5092265;28;20055;-68
2022/06/02 09:23:27;;;;;;;1.15;0.70;;;20.20;46.80;;;;;;5079497;28;20081;-68
2022/06/02 09:25:56;;;;;;;1.15;1.00;;;20.10;47.20;;;;;;5095843;28;20031;-68
2022/06/02 09:28:33;;;;;;;2.08;0.90;;;20.00;47.10;;;;;;5088703;28;20028;-68
2022/06/02 09:31:26;;;;;;;1.73;0.85;;;19.90;46.90;;;;;;5090434;28;20036;-68
2022/06/02 09:34:14;;;;;;;1.33;0.90;;;19.90;47.30;;;;;;5084291;28;20032;-68
2022/06/02 09:36:59;;;;;;;1.67;0.90;;;19.90;47.30;;;;;;5091830;28;20430;-68
2022/06/02 09:39:43;;;;;;;1.52;1.02;;;20.00;47.10;;;;;;5086246;28;20410;-68
2022/06/02 09:42:24;;;;;;;1.95;1.10;;;20.20;46.60;;;;;;5090809;28;20139;-68
2022/06/02 09:45:14;;;;;;;1.50;0.90;;;20.20;46.30;;;;;;5083632;28;20063;-68
2022/06/02 09:47:48;;;;;;;0.77;0.77;;;20.30;46.00;;;;;;5088779;28;20032;-69
2022/06/02 09:50:20;;;;;;;1.90;1.00;;;20.60;45.70;;;;;;5090219;28;20104;-68
2022/06/02 09:53:00;;;;;;;0.95;0.80;;;20.70;45.20;;;;;;5089819;28;20438;-68
2022/06/02 09:55:50;;;;;;;2.10;0.80;;;21.00;44.90;;;;;;5089828;28;20502;-68
2022/06/02 09:58:16;;;;;;;1.27;0.85;;;21.20;44.70;;;;;;5089134;28;20045;-68
2022/06/02 10:01:06;;;;;;;2.90;1.40;;;21.40;43.90;;;;;;5090340;28;20729;-69
2022/06/02 10:03:59;;;;;;;1.45;1.30;;;21.60;43.90;;;;;;5077373;28;20060;-68
2022/06/02 10:07:01;;;;;;;1.55;1.10;;;21.80;44.10;;;;;;5079782;28;20037;-68
2022/06/02 10:09:35;;;;;;;1.30;0.90;;;21.80;43.90;;;;;;5089757;28;20094;-68
2022/06/02 10:15:40;;;;;;;2.42;0.88;;;21.40;43.40;;;;;;5084137;28;20039;-68
2022/06/02 10:18:14;;;;;;;0.73;0.73;;;21.10;44.00;;;;;;5085224;28;20088;-68
2022/06/02 10:20:52;;;;;;;1.65;0.90;;;21.00;44.30;;;;;;5096805;28;20040;-68
2022/06/02 10:23:39;;;;;;;0.70;0.70;;;20.90;44.30;;;;;;5085260;28;20047;-68
2022/06/02 10:26:25;;;;;;;1.15;0.70;;;21.00;44.10;;;;;;5088052;28;20022;-68
2022/06/02 10:29:11;;;;;;;1.42;1.00;;;21.20;43.50;;;;;;5089772;28;20501;-69
2022/06/02 10:31:56;;;;;;;1.55;1.00;;;21.20;41.40;;;;;;5082112;28;20042;-69
2022/06/02 10:34:47;;;;;;;1.45;1.10;;;21.20;41.50;;;;;;5082698;28;20420;-69
2022/06/02 10:37:35;;;;;;;0.90;0.90;;;21.40;41.50;;;;;;5078776;28;20020;-68
2022/06/02 10:40:13;;;;;;;2.28;1.10;;;21.70;41.50;;;;;;5084407;28;20584;-68
2022/06/02 10:42:51;;;;;;;1.15;0.95;;;22.00;41.50;;;;;;5085401;28;20047;-69
2022/06/02 10:45:39;;;;;;;1.75;1.27;;;22.30;41.50;;;;;;5078651;28;20032;-68
2022/06/02 10:48:14;;;;;;;1.85;1.00;;;22.30;41.30;;;;;;5042337;28;20513;-68
2022/06/02 10:51:14;;;;;;;1.42;1.15;;;22.40;41.70;;;;;;5090118;28;20024;-69
2022/06/02 10:54:20;;;;;;;1.30;1.20;;;22.40;41.80;;;;;;5089520;28;20032;-68
2022/06/02 10:57:26;;;;;;;2.22;1.13;;;22.20;41.70;;;;;;5080506;28;20039;-68
2022/06/02 11:00:10;;;;;;;1.50;1.17;;;21.90;41.60;;;;;;5078449;28;20036;-68
2022/06/02 11:03:03;;;;;;;1.90;1.10;;;21.90;41.90;;;;;;5096806;28;20031;-68
2022/06/02 11:05:35;;;;;;;1.48;1.30;;;22.00;41.80;;;;;;5087354;28;20036;-68
2022/06/02 11:08:25;;;;;;;2.00;1.30;;;22.20;41.50;;;;;;5083592;28;20036;-68
2022/06/02 11:10:57;;;;;;;1.52;1.15;;;22.40;41.00;;;;;;5096020;28;20032;-68
2022/06/02 11:13:47;;;;;;;1.20;1.10;;;22.50;40.60;;;;;;5078593;28;20490;-68
2022/06/02 11:16:29;;;;;;;2.25;1.58;;;22.60;40.10;;;;;;5063976;28;20393;-69
2022/06/02 11:19:14;;;;;;;1.52;1.40;;;22.70;38.70;;;;;;5086469;28;20110;-69
2022/06/02 11:21:48;;;;;;;1.25;1.00;;;22.60;38.50;;;;;;5080057;28;20453;-69
2022/06/02 11:24:14;;;;;;;1.60;0.90;;;22.60;38.80;;;;;;5099711;28;20023;-69
2022/06/02 11:26:45;;;;;;;1.60;1.10;;;22.90;38.90;;;;;;5094514;28;20035;-68
2022/06/02 11:29:46;;;;;;;1.45;1.02;;;22.70;35.90;;;;;;5106535;28;20435;-68
2022/06/02 11:32:29;;;;;;;1.20;0.80;;;22.60;37.10;;;;;;5093713;28;20102;-68
2022/06/02 11:35:17;;;;;;;1.08;0.98;;;22.60;37.50;;;;;;5099468;28;20031;-69
2022/06/02 11:38:19;;;;;;;1.10;0.80;;;22.50;38.10;;;;;;5085589;28;20041;-69
2022/06/02 11:41:12;;;;;;;1.70;0.90;;;22.70;38.40;;;;;;5057661;28;20033;-68
2022/06/02 11:44:01;;;;;;;1.27;0.82;;;23.00;38.10;;;;;;5087502;28;20043;-68
2022/06/02 11:46:38;;;;;;;1.00;0.85;;;23.40;37.80;;;;;;5094518;28;20089;-69
2022/06/02 11:49:10;;;;;;;0.88;0.70;;;23.60;37.20;;;;;;5080719;28;20469;-69
2022/06/02 11:52:16;;;;;;;1.05;0.68;;;24.00;37.30;;;;;;5098019;28;20031;-69
2022/06/02 11:55:00;;;;;;;1.30;1.20;;;24.30;37.10;;;;;;5101561;28;20482;-68
2022/06/02 11:57:45;;;;;;;1.45;1.10;;;24.20;36.50;;;;;;5074103;28;20025;-69
2022/06/02 12:00:46;;;;;;;1.77;1.27;;;24.00;36.60;;;;;;5055021;28;20421;-68
2022/06/02 12:03:48;;;;;;;1.75;1.13;;;23.90;36.70;;;;;;5076345;28;20161;-69
2022/06/02 12:06:42;;;;;;;0.77;0.70;;;23.60;36.00;;;;;;5079856;28;20025;-68
2022/06/02 12:09:20;;;;;;;0.95;0.70;;;23.40;37.00;;;;;;5075647;28;20028;-68
2022/06/02 12:12:04;;;;;;;1.05;0.90;;;23.30;37.30;;;;;;5076427;28;20044;-69
2022/06/02 12:14:59;;;;;;;1.73;1.05;;;23.10;37.40;;;;;;5084597;28;20038;-68
2022/06/02 12:17:28;;;;;;;1.13;0.90;;;23.00;37.60;;;;;;5074875;28;20047;-68
2022/06/02 12:20:04;;;;;;;1.67;0.80;;;22.90;37.70;;;;;;5084932;28;20028;-69
2022/06/02 12:22:57;;;;;;;1.10;0.80;;;22.90;37.90;;;;;;5076493;28;20021;-68
2022/06/02 12:26:00;;;;;;;2.10;1.25;;;22.90;37.80;;;;;;5082637;28;20048;-69
2022/06/02 12:28:56;;;;;;;0.82;0.82;;;22.90;37.80;;;;;;5080178;28;20028;-69
2022/06/02 12:31:27;;;;;;;2.00;1.17;;;22.90;38.00;;;;;;5075111;28;20103;-69
2022/06/02 12:34:00;;;;;;;0.75;0.75;;;23.00;38.00;;;;;;5083829;28;20038;-69
2022/06/02 12:36:48;;;;;;;1.15;1.00;;;23.00;38.10;;;;;;5076655;28;20071;-68
2022/06/02 12:39:24;;;;;;;1.50;0.80;;;23.30;38.20;;;;;;5085904;28;20058;-68
2022/06/02 12:42:18;;;;;;;2.45;1.17;;;23.30;38.20;;;;;;5078089;28;20044;-69
2022/06/02 12:45:02;;;;;;;1.10;1.00;;;23.00;38.20;;;;;;5077975;28;20024;-68
2022/06/02 12:48:18;;;;;;;1.50;1.00;;;22.60;38.60;;;;;;5081348;28;20093;-69
2022/06/02 12:51:26;;;;;;;0.90;0.90;;;22.10;39.70;;;;;;5081258;28;20020;-69
2022/06/02 12:54:22;;;;;;;1.52;1.02;;;22.10;40.20;;;;;;5018254;28;20546;-68
2022/06/02 12:57:03;;;;;;;1.58;0.88;;;22.10;40.30;;;;;;5087707;28;20529;-68
2022/06/02 12:59:49;;;;;;;1.63;1.10;;;22.20;40.30;;;;;;5083130;28;20086;-69
2022/06/02 13:02:22;;;;;;;2.47;1.02;;;22.20;39.90;;;;;;5078931;28;20016;-69
2022/06/02 13:05:03;;;;;;;0.73;0.60;;;22.50;39.90;;;;;;5065175;28;20414;-69
2022/06/02 13:07:54;;;;;;;0.80;0.80;;;22.60;39.60;;;;;;5080336;28;20032;-69
2022/06/02 13:10:36;;;;;;;1.70;0.90;;;22.60;39.60;;;;;;5082312;28;20028;-69
2022/06/02 13:13:37;;;;;;;1.83;1.00;;;22.70;39.50;;;;;;5078880;28;20032;-69
2022/06/02 13:16:32;;;;;;;1.35;1.10;;;23.20;38.70;;;;;;5069820;28;20061;-68
2022/06/02 13:19:03;;;;;;;2.00;1.00;;;23.30;38.20;;;;;;5058369;28;20083;-68
2022/06/02 13:21:37;;;;;;;1.42;1.00;;;23.70;38.00;;;;;;5075287;28;21295;-69
2022/06/02 13:24:06;;;;;;;1.48;0.88;;;23.90;37.30;;;;;;5080850;28;20048;-69
2022/06/02 13:26:50;;;;;;;1.00;0.95;;;24.10;37.30;;;;;;5076686;28;20105;-68
2022/06/02 13:30:02;;;;;;;1.77;0.73;;;24.30;37.40;;;;;;5066053;28;20035;-69
2022/06/02 13:32:45;;;;;;;0.98;0.70;;;24.20;37.40;;;;;;5078459;28;20032;-68
2022/06/02 13:35:35;;;;;;;2.45;1.58;;;23.90;37.70;;;;;;5080421;28;20032;-69
2022/06/02 13:38:31;;;;;;;2.42;1.20;;;23.60;37.40;;;;;;5065915;28;20043;-69
2022/06/02 13:41:06;;;;;;;0.75;0.70;;;23.40;38.10;;;;;;5080852;28;20032;-70
2022/06/02 13:43:46;;;;;;;1.10;1.00;;;23.70;38.30;;;;;;5084094;28;20028;-69
2022/06/02 13:46:17;;;;;;;3.08;1.30;;;23.90;37.80;;;;;;5065837;28;20039;-69
2022/06/02 13:49:12;;;;;;;2.70;1.00;;;24.10;36.90;;;;;;5062218;28;20128;-69
2022/06/02 13:52:03;;;;;;;1.48;1.30;;;24.30;37.10;;;;;;5058445;28;20051;-69
2022/06/02 13:57:49;;;;;;;1.98;1.20;;;24.00;36.50;;;;;;5080131;28;20158;-70
2022/06/02 14:00:28;;;;;;;1.73;1.02;;;23.90;36.60;;;;;;5068194;28;20035;-69
2022/06/02 14:03:02;;;;;;;1.50;1.00;;;24.10;36.80;;;;;;5085508;28;20015;-69
2022/06/02 14:05:48;;;;;;;1.00;0.90;;;24.20;36.80;;;;;;5072964;28;20386;-69
2022/06/02 14:08:32;;;;;;;0.88;0.88;;;24.20;36.80;;;;;;5063282;28;20596;-69
2022/06/02 14:11:23;;;;;;;0.80;0.80;;;24.60;36.60;;;;;;5083431;28;20024;-69
2022/06/02 14:14:01;;;;;;;1.15;0.95;;;25.20;35.90;;;;;;5080186;28;20043;-70
2022/06/02 14:16:39;;;;;;;1.00;0.90;;;25.60;35.60;;;;;;5080228;28;20034;-69
2022/06/02 14:19:25;;;;;;;0.77;0.70;;;25.90;35.10;;;;;;5065646;28;20132;-69
2022/06/02 14:22:08;;;;;;;0.73;0.60;;;26.10;35.00;;;;;;5097214;28;21109;-69
2022/06/02 14:24:37;;;;;;;1.10;0.98;;;26.10;35.00;;;;;;5085716;28;20284;-69
2022/06/02 14:27:28;;;;;;;1.27;0.85;;;26.00;35.10;;;;;;5090647;28;20743;-69
2022/06/02 14:29:56;;;;;;;0.95;0.90;;;25.50;35.00;;;;;;5070333;28;20111;-69